EGCN/DSA METAR and TAF weather

Enter ICAO airport designator
Station Type Date Time Source
EGCN METAR 2021/06/24 05:20 UTC NOAA

EGCN 240520Z AUTO 24004KT 9999 BKN026/// 13/12 Q1022


Station Type Date Time Source
EGCN Decoded METAR 2021/06/24 05:20 UTC NOAA

Station name not available
Jun 24, 2021 - 01:20 AM EDT / 2021.06.24 0520 UTC
Wind: from the WSW (240 degrees) at 5 MPH (4 KT):0
Visibility: greater than 7 mile(s):0
Sky conditions: mostly cloudy
Temperature: 55 F (13 C)
Dew Point: 53 F (12 C)
Relative Humidity: 93%
Pressure (altimeter): 30.18 in. Hg (1022 hPa)
ob: EGCN 240520Z AUTO 24004KT 9999 BKN026/// 13/12 Q1022
cycle: 5

Station Type Date Time Source
EGCN TAF 2021/06/24 06:00 UTC NOAA

TAF EGCN 240456Z 2406/2506 26003KT 9999 FEW025 PROB30
TEMPO 2406/2412 7000 -RADZ
BECMG 2409/2412 28013KT PROB30
TEMPO 2412/2418 3000 +SHRA
BECMG 2418/2421 26003KT
TEMPO 2423/2506 7000 RA BKN012 PROB30
TEMPO 2500/2506 3000 RADZ BKN005
BECMG 2503/2506 36010KT

Example: see airport list